Aroma Park, Illinois
Current Conditions -  °F | °C
As of 3:15 PM on Tuesday 21 Oct 2014 (Local Time) from KIKK Reporting Station
Overcast Overcast  
Wind Chill: 52°   Ceiling: 3800
Heat Index: 52°   Visibility: 10mi
Dew Point: 43°   Wind: 13mph
Humidity: 72%   Direction: 10°N
Pressure: 30.17"   Gusts: 17mph
Location:  41.08°N, 87.81°W
Report Text: KIKK 212015Z AUTO 01011G15KT 10SM SCT024 OVC038 11/06 A3017 RMK AO2 T01120063
Loading
Personal Weather Stations






























Interactive Weather Map New forecast layout! Learn more

10-Day Weather Forecast

Advertisements
Track Severe Weather on mobile